Time;durP1;ratioP1;P1;durP2;ratioP2;P2;SDS_P1;SDS_P2;PMS_P1;PMS_P2;Temp;Humidity;BMP_temperature;BMP_pressure;BME280_temperature;BME280_humidity;BME280_pressure;Samples;Min_cycle;Max_cycle;Signal;HPM_P1;HPM_P2
2021/07/03 00:00:39;;;;;;;9.32;8.13;;;27.20;65.30;;;;;;4861910;29;20065;-60
2021/07/03 00:03:20;;;;;;;8.20;7.45;;;27.20;65.40;;;;;;4875600;29;20092;-60
2021/07/03 00:05:46;;;;;;;9.75;8.75;;;27.20;65.40;;;;;;4881059;29;20492;-61
2021/07/03 00:08:12;;;;;;;9.73;8.35;;;27.20;65.40;;;;;;4875516;29;20152;-60
2021/07/03 00:10:39;;;;;;;11.35;7.55;;;27.20;65.40;;;;;;4876313;29;20541;-60
2021/07/03 00:13:05;;;;;;;8.93;8.13;;;27.20;65.40;;;;;;4875105;29;20533;-60
2021/07/03 00:15:31;;;;;;;8.35;7.55;;;27.20;65.40;;;;;;4875381;29;20080;-60
2021/07/03 00:18:00;;;;;;;8.93;8.02;;;27.10;65.20;;;;;;4875558;29;20123;-60
2021/07/03 00:20:26;;;;;;;7.70;7.20;;;27.20;65.40;;;;;;4875158;29;20083;-60
2021/07/03 00:22:53;;;;;;;11.32;7.18;;;27.10;65.40;;;;;;4875158;29;20152;-60
2021/07/03 00:25:19;;;;;;;8.77;7.72;;;27.20;65.50;;;;;;4875097;29;20544;-60
2021/07/03 00:27:45;;;;;;;7.90;7.13;;;27.10;65.50;;;;;;4875413;29;20120;-60
2021/07/03 00:30:12;;;;;;;8.13;7.18;;;27.20;65.50;;;;;;4874834;29;20144;-60
2021/07/03 00:32:38;;;;;;;7.95;7.25;;;27.10;65.40;;;;;;4875297;29;20237;-60
2021/07/03 00:35:07;;;;;;;8.38;7.63;;;27.10;65.40;;;;;;4875184;29;20100;-60
2021/07/03 00:37:33;;;;;;;7.05;6.55;;;27.20;65.50;;;;;;4875425;29;20431;-60
2021/07/03 00:39:59;;;;;;;7.53;6.72;;;27.10;65.40;;;;;;4874657;29;20057;-60
2021/07/03 00:42:25;;;;;;;6.93;6.38;;;27.20;65.50;;;;;;4875050;29;20140;-60
2021/07/03 00:44:51;;;;;;;7.57;6.88;;;27.20;65.40;;;;;;4874603;29;20057;-60
2021/07/03 00:47:17;;;;;;;7.25;6.63;;;27.10;65.30;;;;;;4874975;29;20068;-60
2021/07/03 00:49:45;;;;;;;7.35;6.65;;;27.10;65.40;;;;;;4860999;29;20119;-60
2021/07/03 00:52:12;;;;;;;7.07;6.47;;;27.10;65.40;;;;;;4867713;29;20057;-60
2021/07/03 00:54:40;;;;;;;7.47;6.47;;;27.20;65.40;;;;;;4873458;29;20057;-60
2021/07/03 00:57:08;;;;;;;6.75;6.15;;;27.10;65.50;;;;;;4860982;29;20140;-60
2021/07/03 00:59:40;;;;;;;7.20;6.50;;;27.10;65.40;;;;;;4872777;29;20068;-60
2021/07/03 01:02:11;;;;;;;8.13;6.60;;;27.10;65.40;;;;;;4874847;29;20494;-60
2021/07/03 01:04:40;;;;;;;7.05;6.55;;;27.10;66.00;;;;;;4876971;29;20151;-60
2021/07/03 01:07:08;;;;;;;8.98;6.38;;;27.20;65.40;;;;;;4861173;29;20061;-60
2021/07/03 01:09:35;;;;;;;7.07;6.47;;;27.10;65.40;;;;;;4874590;29;20116;-60
2021/07/03 01:12:04;;;;;;;6.90;6.20;;;27.10;65.40;;;;;;4875014;29;20140;-60
2021/07/03 01:14:32;;;;;;;7.22;6.63;;;27.10;65.50;;;;;;4874701;29;20052;-60
2021/07/03 01:16:58;;;;;;;6.95;6.30;;;27.10;65.30;;;;;;4860816;29;20573;-60
2021/07/03 01:19:25;;;;;;;5.82;5.32;;;27.10;65.40;;;;;;4873187;29;20191;-60
2021/07/03 01:21:55;;;;;;;6.43;5.93;;;27.10;65.50;;;;;;4874191;29;20148;-60
2021/07/03 01:24:23;;;;;;;6.25;5.85;;;27.10;65.50;;;;;;4874360;29;20482;-60
2021/07/03 01:26:55;;;;;;;5.88;5.47;;;27.10;65.60;;;;;;4860943;29;20413;-60
2021/07/03 01:29:23;;;;;;;6.18;5.75;;;27.10;65.50;;;;;;4874320;29;20064;-60
2021/07/03 01:31:51;;;;;;;6.80;6.30;;;27.20;65.70;;;;;;4861033;29;20061;-60
2021/07/03 01:34:19;;;;;;;6.93;6.32;;;27.10;65.50;;;;;;4861323;29;20527;-59
2021/07/03 01:36:47;;;;;;;6.20;5.80;;;27.10;65.50;;;;;;4871437;29;20068;-60
2021/07/03 01:39:14;;;;;;;6.95;6.32;;;27.10;65.70;;;;;;4860702;29;20057;-60
2021/07/03 01:41:41;;;;;;;6.68;6.07;;;27.10;65.70;;;;;;4868283;29;20545;-60
2021/07/03 01:44:08;;;;;;;6.50;5.82;;;27.20;65.70;;;;;;4860071;29;20590;-60
2021/07/03 01:46:35;;;;;;;6.70;6.05;;;27.20;65.60;;;;;;4872912;29;20160;-60
2021/07/03 01:49:07;;;;;;;7.18;6.13;;;27.20;65.60;;;;;;4874354;29;20144;-60
2021/07/03 01:51:44;;;;;;;6.45;5.95;;;27.10;65.50;;;;;;4874247;29;20064;-60
2021/07/03 01:54:11;;;;;;;5.80;5.38;;;27.10;65.60;;;;;;4872748;29;20113;-60
2021/07/03 01:56:41;;;;;;;6.65;6.07;;;27.10;65.70;;;;;;4874193;29;20631;-60
2021/07/03 01:59:12;;;;;;;5.45;5.15;;;27.10;65.70;;;;;;4873793;29;20160;-60
2021/07/03 02:01:58;;;;;;;6.05;5.55;;;27.10;65.70;;;;;;4860382;29;20145;-60
2021/07/03 02:04:27;;;;;;;5.25;4.95;;;27.10;65.90;;;;;;4873831;29;20143;-61
2021/07/03 02:06:55;;;;;;;6.25;5.65;;;27.10;65.90;;;;;;4877006;29;20517;-60
2021/07/03 02:09:25;;;;;;;6.00;5.50;;;27.10;66.00;;;;;;4872799;29;20124;-60
2021/07/03 02:11:55;;;;;;;6.10;5.55;;;27.10;65.90;;;;;;4877872;29;20109;-60
2021/07/03 02:14:29;;;;;;;5.75;5.35;;;27.10;65.80;;;;;;4866338;29;20118;-60
2021/07/03 02:17:15;;;;;;;6.20;5.68;;;27.10;65.90;;;;;;4873757;29;20088;-60
2021/07/03 02:19:42;;;;;;;5.35;5.05;;;27.10;66.00;;;;;;4877654;29;20060;-60
2021/07/03 02:22:11;;;;;;;4.95;4.63;;;27.10;66.10;;;;;;4867569;29;20100;-60
2021/07/03 02:24:43;;;;;;;;;;;27.10;66.10;;;;;;4863966;29;20514;-60
2021/07/03 02:27:11;;;;;;;6.05;5.55;;;27.10;66.30;;;;;;4867401;29;19927;-60
2021/07/03 02:29:39;;;;;;;6.13;5.22;;;27.10;66.10;;;;;;4863897;29;20066;-60
2021/07/03 02:32:07;;;;;;;5.75;5.32;;;27.10;66.20;;;;;;4877309;29;20155;-60
2021/07/03 02:34:34;;;;;;;5.18;4.82;;;27.10;66.20;;;;;;4863502;29;20057;-60
2021/07/03 02:37:00;;;;;;;5.28;4.97;;;27.10;66.20;;;;;;4875953;29;20092;-60
2021/07/03 02:39:27;;;;;;;5.05;4.72;;;27.10;66.30;;;;;;4876021;29;20144;-60
2021/07/03 02:41:53;;;;;;;7.00;5.10;;;27.10;66.40;;;;;;4876958;29;20064;-61
2021/07/03 02:44:21;;;;;;;4.47;4.28;;;27.10;66.40;;;;;;4877104;29;20121;-60
2021/07/03 02:46:48;;;;;;;5.13;4.68;;;27.10;66.30;;;;;;4876895;29;20593;-60
2021/07/03 02:49:15;;;;;;;4.72;4.40;;;27.10;66.30;;;;;;4863245;29;20057;-60
2021/07/03 02:51:42;;;;;;;5.30;4.90;;;27.10;66.40;;;;;;4875715;29;20064;-60
2021/07/03 02:54:08;;;;;;;4.13;3.92;;;27.10;66.50;;;;;;4875577;29;20135;-60
2021/07/03 02:56:34;;;;;;;4.25;3.97;;;27.10;66.50;;;;;;4876809;29;20097;-60
2021/07/03 02:59:03;;;;;;;3.95;3.75;;;27.10;66.60;;;;;;4863059;29;20061;-61
2021/07/03 03:01:30;;;;;;;4.45;4.20;;;27.10;66.50;;;;;;4877031;29;20143;-60
2021/07/03 03:03:56;;;;;;;3.70;3.50;;;27.10;66.50;;;;;;4876633;29;20072;-60
2021/07/03 03:06:22;;;;;;;3.88;3.63;;;27.00;66.40;;;;;;4882378;29;20082;-60
2021/07/03 03:08:55;;;;;;;3.88;3.65;;;27.00;66.40;;;;;;4863210;29;20129;-60
2021/07/03 03:11:23;;;;;;;3.88;3.67;;;27.00;66.50;;;;;;4876474;29;20061;-60
2021/07/03 03:13:50;;;;;;;7.72;3.63;;;27.10;66.60;;;;;;4875225;29;20064;-60
2021/07/03 03:16:18;;;;;;;3.35;3.25;;;27.10;66.60;;;;;;4863512;29;20144;-60
2021/07/03 03:18:45;;;;;;;3.47;3.28;;;27.00;66.50;;;;;;4874719;29;20045;-60
2021/07/03 03:21:11;;;;;;;3.25;3.08;;;27.00;66.50;;;;;;4876025;29;20151;-60
2021/07/03 03:23:39;;;;;;;3.08;2.97;;;27.00;66.50;;;;;;4866809;29;20128;-61
2021/07/03 03:26:06;;;;;;;3.03;2.92;;;27.00;66.60;;;;;;4862643;29;20061;-60
2021/07/03 03:28:38;;;;;;;2.85;2.60;;;27.00;66.60;;;;;;4875110;29;20541;-60
2021/07/03 03:31:06;;;;;;;3.00;2.90;;;27.00;66.70;;;;;;4862439;29;20136;-61
2021/07/03 03:33:38;;;;;;;2.70;2.63;;;27.00;66.60;;;;;;4875080;29;20631;-60
2021/07/03 03:36:04;;;;;;;2.22;2.13;;;27.00;66.70;;;;;;4876370;29;20073;-60
2021/07/03 03:38:31;;;;;;;3.20;2.78;;;27.00;66.70;;;;;;4876178;29;20113;-61
2021/07/03 03:40:59;;;;;;;2.10;2.10;;;27.00;66.70;;;;;;4876176;29;20438;-60
2021/07/03 03:43:25;;;;;;;2.20;2.10;;;27.10;66.80;;;;;;4875872;29;20068;-60
2021/07/03 03:45:51;;;;;;;2.00;2.00;;;27.00;66.80;;;;;;4876026;29;20100;-60
2021/07/03 03:48:18;;;;;;;2.20;2.20;;;27.00;66.70;;;;;;4875769;29;20429;-60
2021/07/03 03:50:52;;;;;;;1.70;1.70;;;27.00;66.70;;;;;;4874848;29;20135;-60
2021/07/03 03:53:20;;;;;;;1.92;1.88;;;27.00;66.80;;;;;;4871406;29;20068;-60
2021/07/03 03:55:48;;;;;;;1.98;1.98;;;27.00;66.80;;;;;;4875553;29;20088;-60
2021/07/03 03:58:18;;;;;;;1.88;1.77;;;27.00;66.80;;;;;;4863584;29;20518;-60
2021/07/03 04:00:44;;;;;;;1.65;1.60;;;27.00;66.80;;;;;;4872860;29;20065;-60
2021/07/03 04:03:11;;;;;;;1.45;1.45;;;27.00;66.80;;;;;;4874418;29;20528;-60
2021/07/03 04:05:43;;;;;;;1.48;1.48;;;27.00;66.90;;;;;;4881327;29;20135;-60
2021/07/03 04:08:11;;;;;;;1.67;1.58;;;27.00;66.80;;;;;;4863337;29;20057;-60
2021/07/03 04:10:39;;;;;;;1.30;1.30;;;27.00;66.80;;;;;;4874955;29;20086;-60
2021/07/03 04:13:05;;;;;;;1.55;1.33;;;27.00;66.80;;;;;;4875610;29;20156;-60
2021/07/03 04:15:31;;;;;;;1.52;1.48;;;26.90;66.80;;;;;;4875506;29;20131;-60
2021/07/03 04:17:57;;;;;;;1.63;1.63;;;27.00;66.90;;;;;;4875519;29;20092;-60
2021/07/03 04:20:23;;;;;;;0.95;0.90;;;26.90;66.90;;;;;;4874939;29;20593;-60
2021/07/03 04:22:49;;;;;;;0.93;0.93;;;26.90;66.90;;;;;;4875408;29;20143;-60
2021/07/03 04:25:15;;;;;;;0.98;0.90;;;26.90;67.00;;;;;;4875367;29;20442;-60
2021/07/03 04:27:42;;;;;;;0.90;0.90;;;26.90;67.00;;;;;;4874947;29;20139;-61
2021/07/03 04:30:09;;;;;;;1.05;1.05;;;27.00;67.10;;;;;;4875344;29;20057;-60
2021/07/03 04:32:40;;;;;;;0.80;0.80;;;26.90;67.10;;;;;;4861739;29;20216;-60
2021/07/03 04:35:07;;;;;;;0.90;0.90;;;26.90;67.00;;;;;;4874543;29;20092;-60
2021/07/03 04:37:36;;;;;;;1.17;1.08;;;26.90;67.10;;;;;;4861151;29;20118;-60
2021/07/03 04:40:05;;;;;;;1.00;1.00;;;26.90;67.10;;;;;;4875108;29;20065;-60
2021/07/03 04:42:31;;;;;;;1.17;0.77;;;26.90;67.20;;;;;;4875036;29;20065;-60
2021/07/03 04:44:57;;;;;;;1.25;1.23;;;26.90;67.20;;;;;;4874810;29;20055;-60
2021/07/03 04:47:24;;;;;;;1.02;1.02;;;26.90;67.20;;;;;;4874862;29;20532;-60
2021/07/03 04:49:51;;;;;;;0.63;0.63;;;26.90;67.20;;;;;;4874918;29;20152;-60
2021/07/03 04:52:17;;;;;;;0.68;0.65;;;26.80;67.20;;;;;;4874617;29;20169;-61
2021/07/03 04:54:43;;;;;;;0.35;0.35;;;26.80;67.30;;;;;;4874844;29;20060;-60
2021/07/03 04:57:12;;;;;;;0.77;0.77;;;26.90;67.30;;;;;;4861343;29;20181;-60
2021/07/03 04:59:42;;;;;;;0.63;0.63;;;26.90;67.30;;;;;;4874414;29;20061;-60
2021/07/03 05:02:11;;;;;;;0.38;0.38;;;26.90;67.30;;;;;;4861179;29;20517;-60
2021/07/03 05:04:41;;;;;;;0.82;0.70;;;26.90;67.40;;;;;;4876968;29;20424;-60
2021/07/03 05:07:07;;;;;;;1.52;0.50;;;26.90;67.40;;;;;;4876774;29;20084;-60
2021/07/03 05:09:39;;;;;;;0.47;0.47;;;26.90;67.30;;;;;;4862796;29;20502;-60
2021/07/03 05:12:06;;;;;;;0.50;0.50;;;26.90;67.30;;;;;;4874462;29;20103;-61
2021/07/03 05:14:32;;;;;;;0.63;0.43;;;26.90;67.30;;;;;;4874522;29;20065;-60
2021/07/03 05:16:58;;;;;;;0.55;0.55;;;26.90;67.30;;;;;;4874301;29;20151;-61
2021/07/03 05:19:24;;;;;;;0.40;0.40;;;26.90;67.40;;;;;;4874769;29;20120;-60
2021/07/03 05:21:50;;;;;;;2.42;0.50;;;26.90;67.40;;;;;;4874318;29;20561;-60
2021/07/03 05:24:16;;;;;;;0.52;0.40;;;26.90;67.40;;;;;;4874604;29;20526;-60
2021/07/03 05:26:42;;;;;;;0.50;0.50;;;26.90;67.40;;;;;;4874101;29;20084;-60
2021/07/03 05:29:08;;;;;;;0.43;0.43;;;26.90;67.40;;;;;;4874532;29;20112;-60
2021/07/03 05:31:34;;;;;;;1.85;0.40;;;26.90;67.50;;;;;;4874160;29;20550;-60
2021/07/03 05:34:01;;;;;;;0.68;0.40;;;26.90;67.40;;;;;;4862662;29;20193;-60
2021/07/03 05:36:27;;;;;;;0.52;0.52;;;27.00;67.60;;;;;;4872833;29;20065;-60
2021/07/03 05:38:54;;;;;;;0.43;0.43;;;26.90;67.50;;;;;;4874523;29;20558;-60
2021/07/03 05:41:20;;;;;;;0.55;0.55;;;27.00;67.50;;;;;;4860667;29;20061;-60
2021/07/03 05:43:46;;;;;;;0.55;0.55;;;27.00;67.50;;;;;;4861958;29;20113;-60
2021/07/03 05:46:13;;;;;;;0.73;0.73;;;26.90;67.50;;;;;;4875998;29;20510;-60
2021/07/03 05:48:40;;;;;;;0.80;0.75;;;26.90;67.50;;;;;;4877990;29;20057;-60
2021/07/03 05:51:06;;;;;;;0.70;0.70;;;26.90;67.50;;;;;;4877930;29;20072;-60
2021/07/03 05:53:33;;;;;;;0.80;0.80;;;26.90;67.50;;;;;;4878100;29;20136;-60
2021/07/03 05:55:59;;;;;;;1.20;1.20;;;27.00;67.60;;;;;;4878021;29;20049;-60
2021/07/03 05:58:25;;;;;;;0.63;0.63;;;27.00;67.60;;;;;;4878067;29;20067;-60
2021/07/03 06:00:51;;;;;;;0.90;0.90;;;26.90;67.60;;;;;;4877489;29;20691;-60
2021/07/03 06:03:17;;;;;;;0.82;0.82;;;27.00;67.70;;;;;;4864775;29;20126;-60
2021/07/03 06:05:43;;;;;;;0.85;0.85;;;26.90;67.60;;;;;;4882111;29;20479;-60
2021/07/03 06:08:09;;;;;;;0.90;0.90;;;26.90;67.70;;;;;;4877861;29;20096;-60
2021/07/03 06:10:37;;;;;;;0.90;0.90;;;26.90;67.70;;;;;;4878304;29;20138;-60
2021/07/03 06:13:03;;;;;;;0.70;0.70;;;27.00;67.80;;;;;;4878288;29;20061;-60
2021/07/03 06:15:29;;;;;;;1.08;1.08;;;27.00;67.80;;;;;;4877483;29;20096;-60
2021/07/03 06:17:55;;;;;;;1.00;1.00;;;27.00;67.80;;;;;;4877524;29;20069;-61
2021/07/03 06:20:22;;;;;;;0.88;0.88;;;27.00;67.80;;;;;;4877453;29;20064;-60
2021/07/03 06:22:49;;;;;;;1.23;1.20;;;27.00;67.80;;;;;;4877467;29;20085;-60
2021/07/03 06:25:14;;;;;;;1.02;1.02;;;27.00;67.80;;;;;;4877359;29;20466;-60
2021/07/03 06:27:41;;;;;;;1.13;1.13;;;27.00;67.80;;;;;;4877382;29;20072;-60
2021/07/03 06:30:11;;;;;;;0.88;0.70;;;27.00;67.80;;;;;;4877377;29;20197;-60
2021/07/03 06:32:38;;;;;;;0.60;0.60;;;27.00;67.80;;;;;;4877375;29;20458;-60
2021/07/03 06:35:06;;;;;;;0.60;0.60;;;27.00;67.90;;;;;;4863424;29;20064;-60
2021/07/03 06:37:32;;;;;;;0.93;0.68;;;27.00;67.90;;;;;;4877449;29;20165;-60
2021/07/03 06:39:58;;;;;;;0.73;0.73;;;27.00;67.90;;;;;;4877473;29;20191;-60
2021/07/03 06:42:25;;;;;;;0.50;0.50;;;27.00;67.90;;;;;;4877129;29;20088;-60
2021/07/03 06:44:51;;;;;;;0.68;0.68;;;27.10;67.90;;;;;;4873447;29;20218;-59
2021/07/03 06:47:19;;;;;;;0.30;0.30;;;27.10;67.90;;;;;;4877080;29;20067;-60
2021/07/03 06:49:45;;;;;;;0.40;0.40;;;27.10;67.90;;;;;;4873778;29;20057;-59
2021/07/03 06:52:11;;;;;;;0.47;0.47;;;27.10;67.90;;;;;;4876777;29;20183;-60
2021/07/03 06:54:41;;;;;;;0.40;0.40;;;27.00;67.90;;;;;;4876924;29;20064;-60
2021/07/03 06:57:09;;;;;;;0.50;0.50;;;27.10;68.00;;;;;;4876217;29;20071;-60
2021/07/03 06:59:35;;;;;;;0.30;0.30;;;27.00;68.00;;;;;;4876580;29;20151;-60
2021/07/03 07:02:03;;;;;;;0.73;0.22;;;27.10;68.10;;;;;;4876810;29;20861;-60
2021/07/03 07:04:29;;;;;;;0.28;0.28;;;27.10;68.00;;;;;;4868947;29;20112;-60
2021/07/03 07:06:57;;;;;;;0.93;0.38;;;27.10;68.10;;;;;;4880110;29;20156;-59
2021/07/03 07:09:24;;;;;;;0.20;0.20;;;27.10;68.10;;;;;;4867645;29;20586;-59
2021/07/03 07:11:51;;;;;;;0.30;0.30;;;27.10;68.20;;;;;;4881185;29;20069;-59
2021/07/03 07:14:18;;;;;;;0.38;0.38;;;27.10;68.20;;;;;;4876495;29;20181;-60
2021/07/03 07:16:44;;;;;;;0.40;0.40;;;27.10;68.20;;;;;;4876184;29;20084;-60
2021/07/03 07:19:10;;;;;;;0.47;0.20;;;27.10;68.30;;;;;;4876593;29;20120;-60
2021/07/03 07:21:37;;;;;;;0.35;0.30;;;27.10;68.40;;;;;;4876729;29;20135;-60
2021/07/03 07:24:05;;;;;;;0.20;0.20;;;27.10;68.40;;;;;;4876316;29;20057;-60
2021/07/03 07:26:32;;;;;;;0.20;0.20;;;27.10;68.50;;;;;;4876710;29;20065;-60
2021/07/03 07:28:58;;;;;;;0.30;0.30;;;27.10;68.50;;;;;;4876213;29;20139;-60
2021/07/03 07:31:24;;;;;;;0.20;0.20;;;27.10;68.60;;;;;;4876198;29;20061;-60
2021/07/03 07:33:50;;;;;;;0.43;0.17;;;27.10;68.70;;;;;;4876130;29;20413;-59
2021/07/03 07:36:17;;;;;;;0.30;0.30;;;27.10;68.80;;;;;;4876255;29;20149;-60
2021/07/03 07:38:43;;;;;;;1.40;0.20;;;27.10;69.00;;;;;;4875984;29;20084;-60
2021/07/03 07:41:08;;;;;;;0.43;0.43;;;27.10;69.10;;;;;;4876165;29;20080;-60
2021/07/03 07:43:35;;;;;;;0.70;0.40;;;27.10;69.30;;;;;;4875732;29;20140;-60
2021/07/03 07:46:02;;;;;;;0.50;0.50;;;27.10;69.50;;;;;;4876239;29;20510;-60
2021/07/03 07:48:29;;;;;;;1.38;1.30;;;27.00;69.60;;;;;;4875960;29;20061;-60
2021/07/03 07:50:57;;;;;;;1.85;0.77;;;27.00;69.70;;;;;;4875755;29;20135;-60
2021/07/03 07:53:23;;;;;;;1.58;1.02;;;27.00;69.80;;;;;;4875707;29;20057;-59
2021/07/03 07:55:50;;;;;;;1.02;1.00;;;26.90;69.80;;;;;;4876006;29;20100;-59
2021/07/03 07:58:16;;;;;;;2.22;1.70;;;26.90;69.80;;;;;;4875921;29;20091;-59
2021/07/03 08:00:44;;;;;;;1.25;1.17;;;26.90;69.70;;;;;;4875817;29;20113;-59
2021/07/03 08:03:09;;;;;;;1.02;1.00;;;26.80;69.70;;;;;;4875532;29;20458;-60
2021/07/03 08:05:37;;;;;;;1.30;1.20;;;26.80;69.70;;;;;;4881081;29;20136;-60
2021/07/03 08:08:06;;;;;;;1.13;1.02;;;26.80;69.80;;;;;;4874714;29;20116;-60
2021/07/03 08:10:38;;;;;;;1.98;1.50;;;26.70;69.60;;;;;;4876578;29;20085;-60
2021/07/03 08:13:05;;;;;;;1.05;1.05;;;26.70;69.70;;;;;;4875366;29;20072;-60
2021/07/03 08:15:33;;;;;;;1.40;0.98;;;26.70;69.70;;;;;;4875447;29;20061;-60
2021/07/03 08:18:00;;;;;;;1.60;1.50;;;26.70;69.60;;;;;;4875397;29;20056;-59
2021/07/03 08:20:26;;;;;;;0.82;0.82;;;26.70;69.60;;;;;;4865611;29;20143;-59
2021/07/03 08:22:55;;;;;;;1.40;1.30;;;26.70;69.60;;;;;;4875393;29;20061;-60
2021/07/03 08:25:22;;;;;;;0.90;0.90;;;26.70;69.50;;;;;;4866435;29;20061;-59
2021/07/03 08:27:50;;;;;;;1.15;1.15;;;26.70;69.50;;;;;;4875347;29;20061;-59
2021/07/03 08:30:17;;;;;;;0.90;0.90;;;26.70;69.50;;;;;;4875174;29;20061;-60
2021/07/03 08:32:43;;;;;;;1.13;1.13;;;26.70;69.40;;;;;;4875274;29;20068;-59
2021/07/03 08:35:10;;;;;;;1.27;1.27;;;26.70;69.40;;;;;;4875035;29;20093;-60
2021/07/03 08:37:36;;;;;;;1.10;1.10;;;26.70;69.30;;;;;;4875076;29;20071;-60
2021/07/03 08:40:05;;;;;;;1.55;1.45;;;26.70;69.30;;;;;;4866249;29;20060;-59
2021/07/03 08:42:31;;;;;;;2.50;1.20;;;26.70;69.30;;;;;;4861579;29;20518;-60
2021/07/03 08:44:59;;;;;;;1.42;1.30;;;26.80;69.30;;;;;;4875052;29;20067;-59
2021/07/03 08:47:25;;;;;;;1.70;1.60;;;26.80;69.60;;;;;;4875024;29;20068;-59
2021/07/03 08:49:54;;;;;;;4.03;1.42;;;26.70;69.20;;;;;;4865930;29;20136;-60
2021/07/03 08:52:20;;;;;;;1.10;1.10;;;26.70;69.30;;;;;;4875002;29;20156;-59
2021/07/03 08:55:05;;;;;;;2.08;1.17;;;26.70;69.30;;;;;;4874769;29;20063;-60
2021/07/03 08:57:45;;;;;;;2.03;1.33;;;26.70;69.30;;;;;;4874935;29;20164;-60
2021/07/03 09:00:12;;;;;;;1.55;1.42;;;26.70;69.30;;;;;;4874342;29;20091;-60
2021/07/03 09:02:44;;;;;;;2.95;1.20;;;26.80;69.40;;;;;;4874756;29;20091;-60
2021/07/03 09:05:29;;;;;;;1.65;1.55;;;26.80;69.40;;;;;;4879578;29;20061;-59
2021/07/03 09:07:58;;;;;;;5.38;1.30;;;26.80;69.50;;;;;;4874582;29;20139;-60
2021/07/03 09:10:24;;;;;;;1.73;1.27;;;26.80;69.40;;;;;;4875397;29;20522;-60
2021/07/03 09:12:53;;;;;;;1.17;1.17;;;26.80;69.40;;;;;;4874616;29;20176;-60
2021/07/03 09:15:22;;;;;;;1.27;1.27;;;26.80;69.30;;;;;;4874476;29;20136;-61
2021/07/03 09:17:56;;;;;;;1.30;1.30;;;26.80;69.30;;;;;;4874799;29;20081;-60
2021/07/03 09:20:27;;;;;;;1.45;1.40;;;26.80;69.30;;;;;;4873819;29;20168;-60
2021/07/03 09:23:02;;;;;;;1.47;1.37;;;26.80;69.40;;;;;;4874555;29;20071;-61
2021/07/03 09:25:28;;;;;;;1.40;1.40;;;26.80;69.30;;;;;;4874658;29;20168;-59
2021/07/03 09:27:56;;;;;;;1.05;1.05;;;26.80;69.30;;;;;;4874455;29;20065;-60
2021/07/03 09:30:22;;;;;;;1.77;1.67;;;26.80;69.30;;;;;;4874236;29;20061;-60
2021/07/03 09:32:53;;;;;;;1.65;1.55;;;26.90;69.30;;;;;;4874398;29;20102;-60
2021/07/03 09:35:20;;;;;;;2.05;1.95;;;26.90;69.80;;;;;;4873989;29;20415;-59
2021/07/03 09:37:46;;;;;;;1.58;1.55;;;26.90;69.20;;;;;;4874525;29;20823;-60
2021/07/03 09:40:13;;;;;;;2.35;2.25;;;26.90;69.20;;;;;;4864276;29;20580;-60
2021/07/03 09:42:40;;;;;;;1.70;1.60;;;26.80;69.20;;;;;;4874333;29;20057;-60
2021/07/03 09:45:08;;;;;;;3.00;2.45;;;26.90;69.20;;;;;;4874244;29;20065;-60
2021/07/03 09:47:35;;;;;;;1.63;1.60;;;26.90;69.20;;;;;;4874161;29;20140;-60
2021/07/03 09:50:12;;;;;;;3.15;2.33;;;27.00;69.20;;;;;;4874229;29;20480;-59
2021/07/03 09:52:39;;;;;;;1.77;1.77;;;26.90;69.10;;;;;;4873896;29;20137;-60
2021/07/03 09:55:09;;;;;;;2.00;1.90;;;26.90;69.10;;;;;;4874010;29;20057;-60
2021/07/03 09:57:37;;;;;;;2.05;1.95;;;26.90;69.10;;;;;;4874114;29;20429;-60
2021/07/03 10:00:08;;;;;;;1.40;1.40;;;26.90;69.10;;;;;;4874450;29;20589;-60
2021/07/03 10:02:39;;;;;;;2.20;2.10;;;26.90;69.10;;;;;;4870475;29;20069;-60
2021/07/03 10:05:05;;;;;;;2.00;1.95;;;26.90;69.10;;;;;;4879691;29;20780;-59
2021/07/03 10:07:41;;;;;;;2.03;1.92;;;26.90;69.10;;;;;;4874266;29;20516;-59
2021/07/03 10:10:21;;;;;;;2.05;1.98;;;26.90;69.10;;;;;;4874952;29;20135;-60
2021/07/03 10:12:56;;;;;;;3.25;2.92;;;26.90;69.10;;;;;;4874136;29;20061;-60
2021/07/03 10:15:27;;;;;;;2.53;1.90;;;26.90;69.20;;;;;;4873758;29;20484;-60
2021/07/03 10:17:54;;;;;;;2.67;2.28;;;26.90;69.10;;;;;;4874191;29;20060;-60
2021/07/03 10:20:20;;;;;;;2.92;2.33;;;26.90;69.10;;;;;;4873845;29;20418;-60
2021/07/03 10:22:54;;;;;;;2.50;2.30;;;26.90;69.30;;;;;;4874007;29;20877;-60
2021/07/03 10:25:26;;;;;;;2.08;1.98;;;26.90;69.30;;;;;;4869915;29;20065;-59
2021/07/03 10:27:56;;;;;;;1.75;1.67;;;26.90;69.30;;;;;;4873836;29;20545;-60
2021/07/03 10:30:23;;;;;;;2.22;2.13;;;26.90;69.40;;;;;;4873654;29;20594;-60
2021/07/03 10:32:55;;;;;;;2.00;1.90;;;26.90;69.40;;;;;;4876273;29;20064;-60
2021/07/03 10:35:22;;;;;;;2.35;2.28;;;26.90;69.40;;;;;;4876899;29;20149;-60
2021/07/03 10:37:49;;;;;;;2.25;2.15;;;27.00;69.40;;;;;;4877210;29;20626;-59
2021/07/03 10:40:30;;;;;;;3.28;1.77;;;27.00;69.40;;;;;;4877217;29;20129;-60
2021/07/03 10:43:08;;;;;;;2.72;2.63;;;27.00;69.50;;;;;;4877618;29;20220;-59
2021/07/03 10:45:47;;;;;;;2.10;2.08;;;27.00;69.60;;;;;;4877315;29;20090;-60
2021/07/03 10:48:34;;;;;;;2.45;2.30;;;27.00;69.50;;;;;;4875118;29;20193;-60
2021/07/03 10:51:10;;;;;;;6.43;2.20;;;27.00;69.60;;;;;;4877239;29;20487;-60
2021/07/03 10:53:37;;;;;;;2.63;2.42;;;27.00;69.50;;;;;;4877143;29;20143;-60
2021/07/03 10:56:14;;;;;;;2.85;2.38;;;27.00;69.50;;;;;;4876852;29;20092;-60
2021/07/03 10:58:43;;;;;;;2.05;2.05;;;27.00;69.70;;;;;;4876930;29;20148;-60
2021/07/03 11:01:11;;;;;;;2.90;2.33;;;27.00;69.60;;;;;;4876922;29;20526;-59
2021/07/03 11:03:55;;;;;;;2.60;2.42;;;27.00;69.60;;;;;;4876694;29;20479;-59
2021/07/03 11:06:22;;;;;;;9.52;3.88;;;27.00;69.70;;;;;;4882210;29;20104;-59
2021/07/03 11:08:49;;;;;;;3.65;2.60;;;27.00;69.60;;;;;;4876519;29;20126;-60
2021/07/03 11:11:16;;;;;;;3.70;2.53;;;27.00;69.60;;;;;;4877533;29;20601;-59
2021/07/03 11:13:45;;;;;;;2.50;2.50;;;27.00;69.70;;;;;;4875348;29;20085;-60
2021/07/03 11:16:13;;;;;;;2.78;2.67;;;27.00;69.60;;;;;;4876449;29;20060;-60
2021/07/03 11:18:44;;;;;;;3.42;2.72;;;27.00;69.60;;;;;;4876644;29;20441;-60
2021/07/03 11:21:12;;;;;;;2.38;2.28;;;27.00;69.60;;;;;;4875576;29;20060;-60
2021/07/03 11:23:39;;;;;;;2.65;2.55;;;27.10;69.60;;;;;;4876036;29;20053;-60
2021/07/03 11:26:23;;;;;;;2.92;2.80;;;27.00;69.60;;;;;;4876565;29;20838;-60
2021/07/03 11:28:52;;;;;;;2.42;2.33;;;27.10;69.70;;;;;;4874747;29;20094;-60
2021/07/03 11:31:20;;;;;;;3.30;2.35;;;27.00;69.60;;;;;;4876323;29;20071;-60
2021/07/03 11:33:46;;;;;;;1.90;1.88;;;27.00;69.70;;;;;;4876398;29;20470;-59
2021/07/03 11:36:14;;;;;;;4.30;2.70;;;27.00;69.60;;;;;;4876234;29;20581;-59
2021/07/03 11:38:40;;;;;;;2.95;2.20;;;27.00;69.60;;;;;;4876280;29;20089;-60
2021/07/03 11:41:07;;;;;;;3.42;3.22;;;27.00;69.60;;;;;;4876508;29;20060;-60
2021/07/03 11:43:33;;;;;;;2.60;2.50;;;27.10;69.70;;;;;;4866251;29;20140;-60
2021/07/03 11:46:01;;;;;;;5.03;2.78;;;27.00;69.70;;;;;;4876180;29;20121;-60
2021/07/03 11:48:28;;;;;;;2.58;2.47;;;27.00;69.80;;;;;;4876025;29;20060;-60
2021/07/03 11:51:01;;;;;;;3.05;2.80;;;27.00;69.80;;;;;;4876024;29;20442;-60
2021/07/03 11:53:30;;;;;;;3.50;2.60;;;27.00;69.90;;;;;;4875815;29;20615;-60
2021/07/03 11:56:02;;;;;;;2.97;2.85;;;27.10;69.80;;;;;;4875946;29;20597;-60
2021/07/03 11:58:33;;;;;;;3.55;2.83;;;27.10;69.90;;;;;;4876127;29;20065;-59
2021/07/03 12:01:08;;;;;;;3.25;2.78;;;27.10;69.90;;;;;;4872374;29;20121;-59
2021/07/03 12:03:36;;;;;;;2.85;2.70;;;27.10;69.90;;;;;;4875643;29;20085;-60
2021/07/03 12:06:04;;;;;;;3.05;2.85;;;27.10;69.80;;;;;;4881198;29;20144;-60
2021/07/03 12:08:33;;;;;;;2.53;2.33;;;27.10;69.90;;;;;;4875789;29;20572;-59
2021/07/03 12:11:05;;;;;;;6.40;3.33;;;27.00;69.80;;;;;;4876737;29;20108;-59
2021/07/03 12:13:36;;;;;;;2.30;2.20;;;27.10;70.60;;;;;;4861933;29;20178;-59
2021/07/03 12:16:02;;;;;;;4.30;2.80;;;27.10;70.00;;;;;;4875665;29;21075;-59
2021/07/03 12:18:31;;;;;;;3.13;3.03;;;27.10;69.90;;;;;;4875727;29;20065;-60
2021/07/03 12:21:12;;;;;;;3.53;3.20;;;27.10;70.00;;;;;;4875601;29;20061;-59
2021/07/03 12:23:47;;;;;;;3.08;2.88;;;27.00;70.10;;;;;;4870731;29;20148;-60
2021/07/03 12:26:24;;;;;;;3.33;3.13;;;27.10;70.20;;;;;;4875403;29;20168;-59
2021/07/03 12:28:54;;;;;;;3.78;3.50;;;27.10;70.80;;;;;;4875313;29;20060;-59
2021/07/03 12:31:28;;;;;;;3.38;3.13;;;27.00;70.10;;;;;;4875105;29;20528;-60
2021/07/03 12:34:12;;;;;;;3.33;3.22;;;27.00;70.30;;;;;;4875325;29;20071;-60
2021/07/03 12:36:42;;;;;;;3.65;3.38;;;27.00;70.40;;;;;;4875067;29;20143;-60
2021/07/03 12:39:14;;;;;;;4.18;3.88;;;27.00;70.30;;;;;;4861369;29;20054;-60
2021/07/03 12:41:46;;;;;;;3.67;3.47;;;27.10;70.60;;;;;;4875023;29;20148;-60
2021/07/03 12:44:12;;;;;;;4.00;3.80;;;27.10;70.60;;;;;;4875043;29;20060;-60
2021/07/03 12:46:41;;;;;;;4.03;3.83;;;27.10;70.60;;;;;;4875125;29;20437;-60
2021/07/03 12:49:08;;;;;;;4.35;4.05;;;27.10;70.60;;;;;;4875107;29;20498;-60
2021/07/03 12:51:41;;;;;;;4.72;4.40;;;27.10;70.60;;;;;;4874877;29;20056;-60
2021/07/03 12:54:10;;;;;;;4.85;4.45;;;27.10;70.60;;;;;;4874380;29;20067;-60